sensor_id;sensor_type;location;lat;lon;timestamp;P1;durP1;ratioP1;P2;durP2;ratioP2
41685;SDS011;27370;42.764;23.432;2023-02-01T00:00:00;19.77;;;11.20;;
41685;SDS011;27370;42.764;23.432;2023-02-01T00:02:26;41.53;;;20.05;;
41685;SDS011;27370;42.764;23.432;2023-02-01T00:04:51;42.55;;;18.63;;
41685;SDS011;27370;42.764;23.432;2023-02-01T00:07:17;18.50;;;10.60;;
41685;SDS011;27370;42.764;23.432;2023-02-01T00:09:42;15.52;;;7.95;;
41685;SDS011;27370;42.764;23.432;2023-02-01T00:12:08;20.98;;;10.98;;
41685;SDS011;27370;42.764;23.432;2023-02-01T00:14:33;14.20;;;8.75;;
41685;SDS011;27370;42.764;23.432;2023-02-01T00:17:06;14.27;;;7.93;;
41685;SDS011;27370;42.764;23.432;2023-02-01T00:19:32;15.32;;;8.50;;
41685;SDS011;27370;42.764;23.432;2023-02-01T00:21:58;15.00;;;7.78;;
41685;SDS011;27370;42.764;23.432;2023-02-01T00:24:24;14.27;;;8.60;;
41685;SDS011;27370;42.764;23.432;2023-02-01T00:26:49;14.23;;;8.40;;
41685;SDS011;27370;42.764;23.432;2023-02-01T00:29:16;13.88;;;8.60;;
41685;SDS011;27370;42.764;23.432;2023-02-01T00:31:45;16.02;;;10.02;;
41685;SDS011;27370;42.764;23.432;2023-02-01T00:34:11;15.43;;;8.88;;
41685;SDS011;27370;42.764;23.432;2023-02-01T00:36:39;16.05;;;9.65;;
41685;SDS011;27370;42.764;23.432;2023-02-01T00:39:05;16.80;;;10.05;;
41685;SDS011;27370;42.764;23.432;2023-02-01T00:41:31;19.40;;;12.02;;
41685;SDS011;27370;42.764;23.432;2023-02-01T00:43:56;17.13;;;10.80;;
41685;SDS011;27370;42.764;23.432;2023-02-01T00:46:22;11.20;;;6.00;;
41685;SDS011;27370;42.764;23.432;2023-02-01T00:48:48;11.82;;;6.05;;
41685;SDS011;27370;42.764;23.432;2023-02-01T00:51:15;10.82;;;5.97;;
41685;SDS011;27370;42.764;23.432;2023-02-01T00:53:43;13.15;;;6.47;;
41685;SDS011;27370;42.764;23.432;2023-02-01T00:56:09;10.65;;;5.85;;
41685;SDS011;27370;42.764;23.432;2023-02-01T00:58:35;11.20;;;5.93;;
41685;SDS011;27370;42.764;23.432;2023-02-01T01:03:49;11.15;;;6.28;;
41685;SDS011;27370;42.764;23.432;2023-02-01T01:06:18;12.02;;;6.68;;
41685;SDS011;27370;42.764;23.432;2023-02-01T01:11:16;14.20;;;8.10;;
41685;SDS011;27370;42.764;23.432;2023-02-01T01:13:46;15.15;;;9.00;;
41685;SDS011;27370;42.764;23.432;2023-02-01T01:16:13;15.80;;;9.30;;
41685;SDS011;27370;42.764;23.432;2023-02-01T01:18:39;13.38;;;8.63;;
41685;SDS011;27370;42.764;23.432;2023-02-01T01:21:05;14.82;;;8.75;;
41685;SDS011;27370;42.764;23.432;2023-02-01T01:23:32;13.10;;;8.40;;
41685;SDS011;27370;42.764;23.432;2023-02-01T01:25:58;12.07;;;7.25;;
41685;SDS011;27370;42.764;23.432;2023-02-01T01:28:23;13.02;;;7.30;;
41685;SDS011;27370;42.764;23.432;2023-02-01T01:30:49;14.30;;;7.65;;
41685;SDS011;27370;42.764;23.432;2023-02-01T01:33:15;13.80;;;7.35;;
41685;SDS011;27370;42.764;23.432;2023-02-01T01:35:41;13.88;;;8.07;;
41685;SDS011;27370;42.764;23.432;2023-02-01T01:38:08;14.75;;;8.10;;
41685;SDS011;27370;42.764;23.432;2023-02-01T01:40:35;13.68;;;7.35;;
41685;SDS011;27370;42.764;23.432;2023-02-01T01:43:01;15.68;;;7.90;;
41685;SDS011;27370;42.764;23.432;2023-02-01T01:45:28;13.07;;;7.40;;
41685;SDS011;27370;42.764;23.432;2023-02-01T01:47:56;13.98;;;7.57;;
41685;SDS011;27370;42.764;23.432;2023-02-01T01:50:30;12.25;;;6.65;;
41685;SDS011;27370;42.764;23.432;2023-02-01T01:53:03;12.17;;;6.70;;
41685;SDS011;27370;42.764;23.432;2023-02-01T01:55:32;13.05;;;7.18;;
41685;SDS011;27370;42.764;23.432;2023-02-01T01:58:04;13.52;;;6.95;;
41685;SDS011;27370;42.764;23.432;2023-02-01T02:00:32;16.00;;;8.27;;
41685;SDS011;27370;42.764;23.432;2023-02-01T02:03:00;22.08;;;10.60;;
41685;SDS011;27370;42.764;23.432;2023-02-01T02:05:32;33.90;;;17.08;;
41685;SDS011;27370;42.764;23.432;2023-02-01T02:07:58;15.05;;;8.32;;
41685;SDS011;27370;42.764;23.432;2023-02-01T02:10:26;12.35;;;6.85;;
41685;SDS011;27370;42.764;23.432;2023-02-01T02:13:13;13.23;;;7.03;;
41685;SDS011;27370;42.764;23.432;2023-02-01T02:15:45;12.63;;;6.37;;
41685;SDS011;27370;42.764;23.432;2023-02-01T02:18:27;11.10;;;6.05;;
41685;SDS011;27370;42.764;23.432;2023-02-01T02:21:10;12.85;;;6.70;;
41685;SDS011;27370;42.764;23.432;2023-02-01T02:38:17;18.20;;;8.82;;
41685;SDS011;27370;42.764;23.432;2023-02-01T02:44:21;11.52;;;5.97;;
41685;SDS011;27370;42.764;23.432;2023-02-01T02:47:13;13.98;;;7.40;;
41685;SDS011;27370;42.764;23.432;2023-02-01T02:49:54;19.77;;;9.70;;
41685;SDS011;27370;42.764;23.432;2023-02-01T02:52:56;16.25;;;8.15;;
41685;SDS011;27370;42.764;23.432;2023-02-01T02:55:46;14.50;;;7.07;;
41685;SDS011;27370;42.764;23.432;2023-02-01T02:58:12;15.30;;;7.72;;
41685;SDS011;27370;42.764;23.432;2023-02-01T03:00:59;13.65;;;7.22;;
41685;SDS011;27370;42.764;23.432;2023-02-01T03:03:44;11.70;;;6.40;;
41685;SDS011;27370;42.764;23.432;2023-02-01T03:06:34;11.88;;;6.82;;
41685;SDS011;27370;42.764;23.432;2023-02-01T03:09:02;11.18;;;6.20;;
41685;SDS011;27370;42.764;23.432;2023-02-01T03:11:33;12.20;;;5.78;;
41685;SDS011;27370;42.764;23.432;2023-02-01T03:14:20;12.82;;;6.43;;
41685;SDS011;27370;42.764;23.432;2023-02-01T03:16:49;11.95;;;6.45;;
41685;SDS011;27370;42.764;23.432;2023-02-01T03:19:33;10.57;;;5.45;;
41685;SDS011;27370;42.764;23.432;2023-02-01T03:22:05;11.70;;;6.05;;
41685;SDS011;27370;42.764;23.432;2023-02-01T03:24:41;10.88;;;5.75;;
41685;SDS011;27370;42.764;23.432;2023-02-01T03:27:13;10.55;;;5.75;;
41685;SDS011;27370;42.764;23.432;2023-02-01T03:29:49;12.75;;;6.03;;
41685;SDS011;27370;42.764;23.432;2023-02-01T03:32:20;13.95;;;6.10;;
41685;SDS011;27370;42.764;23.432;2023-02-01T03:34:46;13.07;;;5.68;;
41685;SDS011;27370;42.764;23.432;2023-02-01T03:37:14;12.98;;;6.63;;
41685;SDS011;27370;42.764;23.432;2023-02-01T03:40:05;15.13;;;7.88;;
41685;SDS011;27370;42.764;23.432;2023-02-01T03:42:37;13.38;;;7.32;;
41685;SDS011;27370;42.764;23.432;2023-02-01T03:45:09;12.20;;;6.68;;
41685;SDS011;27370;42.764;23.432;2023-02-01T03:47:40;12.38;;;6.90;;
41685;SDS011;27370;42.764;23.432;2023-02-01T03:50:17;13.57;;;7.32;;
41685;SDS011;27370;42.764;23.432;2023-02-01T03:52:45;15.10;;;7.43;;
41685;SDS011;27370;42.764;23.432;2023-02-01T03:55:16;15.57;;;7.45;;
41685;SDS011;27370;42.764;23.432;2023-02-01T04:00:46;12.25;;;5.88;;
41685;SDS011;27370;42.764;23.432;2023-02-01T04:03:16;13.77;;;6.57;;
41685;SDS011;27370;42.764;23.432;2023-02-01T04:05:42;13.45;;;5.97;;
41685;SDS011;27370;42.764;23.432;2023-02-01T04:08:08;11.10;;;5.50;;
41685;SDS011;27370;42.764;23.432;2023-02-01T04:10:34;10.20;;;5.35;;
41685;SDS011;27370;42.764;23.432;2023-02-01T04:12:59;15.00;;;6.75;;
41685;SDS011;27370;42.764;23.432;2023-02-01T04:15:25;11.00;;;5.28;;
41685;SDS011;27370;42.764;23.432;2023-02-01T04:17:51;9.88;;;5.28;;
41685;SDS011;27370;42.764;23.432;2023-02-01T04:20:16;9.23;;;5.05;;
41685;SDS011;27370;42.764;23.432;2023-02-01T04:22:42;10.60;;;5.13;;
41685;SDS011;27370;42.764;23.432;2023-02-01T04:25:08;9.65;;;5.00;;
41685;SDS011;27370;42.764;23.432;2023-02-01T04:27:34;10.43;;;4.78;;
41685;SDS011;27370;42.764;23.432;2023-02-01T04:30:00;10.30;;;5.18;;
41685;SDS011;27370;42.764;23.432;2023-02-01T04:32:26;10.10;;;4.53;;
41685;SDS011;27370;42.764;23.432;2023-02-01T04:34:52;14.48;;;5.90;;
41685;SDS011;27370;42.764;23.432;2023-02-01T04:37:17;14.00;;;6.05;;
41685;SDS011;27370;42.764;23.432;2023-02-01T04:39:43;12.57;;;6.95;;
41685;SDS011;27370;42.764;23.432;2023-02-01T04:42:08;12.13;;;6.78;;
41685;SDS011;27370;42.764;23.432;2023-02-01T04:44:34;15.07;;;6.97;;
41685;SDS011;27370;42.764;23.432;2023-02-01T04:47:02;11.80;;;5.85;;
41685;SDS011;27370;42.764;23.432;2023-02-01T04:49:27;12.75;;;5.70;;
41685;SDS011;27370;42.764;23.432;2023-02-01T04:51:53;11.23;;;5.55;;
41685;SDS011;27370;42.764;23.432;2023-02-01T04:54:18;13.55;;;5.20;;
41685;SDS011;27370;42.764;23.432;2023-02-01T04:56:44;17.98;;;8.05;;
41685;SDS011;27370;42.764;23.432;2023-02-01T04:59:10;22.58;;;9.25;;
41685;SDS011;27370;42.764;23.432;2023-02-01T05:01:36;24.42;;;10.52;;
41685;SDS011;27370;42.764;23.432;2023-02-01T05:04:02;21.85;;;10.40;;
41685;SDS011;27370;42.764;23.432;2023-02-01T05:06:28;22.58;;;10.43;;
41685;SDS011;27370;42.764;23.432;2023-02-01T05:08:53;23.45;;;10.15;;
41685;SDS011;27370;42.764;23.432;2023-02-01T05:11:19;26.75;;;12.27;;
41685;SDS011;27370;42.764;23.432;2023-02-01T05:14:03;18.35;;;8.32;;
41685;SDS011;27370;42.764;23.432;2023-02-01T05:16:29;16.27;;;7.18;;
41685;SDS011;27370;42.764;23.432;2023-02-01T05:18:54;13.57;;;7.47;;
41685;SDS011;27370;42.764;23.432;2023-02-01T05:21:20;21.55;;;9.85;;
41685;SDS011;27370;42.764;23.432;2023-02-01T05:23:46;18.60;;;10.45;;
41685;SDS011;27370;42.764;23.432;2023-02-01T05:26:30;16.73;;;8.73;;
41685;SDS011;27370;42.764;23.432;2023-02-01T05:28:55;16.17;;;9.27;;
41685;SDS011;27370;42.764;23.432;2023-02-01T05:31:21;17.67;;;8.63;;
41685;SDS011;27370;42.764;23.432;2023-02-01T05:33:47;14.73;;;7.82;;
41685;SDS011;27370;42.764;23.432;2023-02-01T05:36:12;11.50;;;6.35;;
41685;SDS011;27370;42.764;23.432;2023-02-01T05:38:38;19.27;;;9.35;;
41685;SDS011;27370;42.764;23.432;2023-02-01T05:41:04;15.57;;;7.47;;
41685;SDS011;27370;42.764;23.432;2023-02-01T05:43:29;16.52;;;8.48;;
41685;SDS011;27370;42.764;23.432;2023-02-01T05:45:55;15.50;;;7.35;;
41685;SDS011;27370;42.764;23.432;2023-02-01T05:48:20;12.60;;;6.85;;
41685;SDS011;27370;42.764;23.432;2023-02-01T05:50:46;16.15;;;8.65;;
41685;SDS011;27370;42.764;23.432;2023-02-01T05:53:12;15.65;;;8.48;;
41685;SDS011;27370;42.764;23.432;2023-02-01T05:55:38;17.42;;;8.48;;
41685;SDS011;27370;42.764;23.432;2023-02-01T05:58:04;14.35;;;7.55;;
41685;SDS011;27370;42.764;23.432;2023-02-01T06:00:30;15.50;;;7.30;;
41685;SDS011;27370;42.764;23.432;2023-02-01T06:02:56;16.50;;;7.68;;
41685;SDS011;27370;42.764;23.432;2023-02-01T06:05:21;15.00;;;7.32;;
41685;SDS011;27370;42.764;23.432;2023-02-01T06:07:47;15.40;;;7.45;;
41685;SDS011;27370;42.764;23.432;2023-02-01T06:10:14;25.27;;;7.32;;
41685;SDS011;27370;42.764;23.432;2023-02-01T06:12:41;14.15;;;6.38;;
41685;SDS011;27370;42.764;23.432;2023-02-01T06:15:06;16.60;;;7.25;;
41685;SDS011;27370;42.764;23.432;2023-02-01T06:17:32;15.73;;;6.78;;
41685;SDS011;27370;42.764;23.432;2023-02-01T06:19:57;13.60;;;5.80;;
41685;SDS011;27370;42.764;23.432;2023-02-01T06:22:23;14.63;;;6.15;;
41685;SDS011;27370;42.764;23.432;2023-02-01T06:24:49;13.02;;;6.35;;
41685;SDS011;27370;42.764;23.432;2023-02-01T06:27:14;13.60;;;5.95;;
41685;SDS011;27370;42.764;23.432;2023-02-01T06:29:40;13.55;;;6.68;;
41685;SDS011;27370;42.764;23.432;2023-02-01T06:32:06;11.88;;;6.68;;
41685;SDS011;27370;42.764;23.432;2023-02-01T06:34:31;38.38;;;17.50;;
41685;SDS011;27370;42.764;23.432;2023-02-01T06:36:57;18.52;;;10.25;;
41685;SDS011;27370;42.764;23.432;2023-02-01T06:39:23;18.05;;;8.55;;
41685;SDS011;27370;42.764;23.432;2023-02-01T06:41:48;15.95;;;7.50;;
41685;SDS011;27370;42.764;23.432;2023-02-01T06:44:15;14.27;;;7.15;;
41685;SDS011;27370;42.764;23.432;2023-02-01T06:46:41;13.80;;;5.90;;
41685;SDS011;27370;42.764;23.432;2023-02-01T06:49:07;14.63;;;5.80;;
41685;SDS011;27370;42.764;23.432;2023-02-01T06:51:33;10.18;;;4.80;;
41685;SDS011;27370;42.764;23.432;2023-02-01T06:53:59;13.57;;;5.53;;
41685;SDS011;27370;42.764;23.432;2023-02-01T06:56:26;11.82;;;5.32;;
41685;SDS011;27370;42.764;23.432;2023-02-01T06:58:52;11.85;;;4.80;;
41685;SDS011;27370;42.764;23.432;2023-02-01T07:01:18;10.73;;;5.35;;
41685;SDS011;27370;42.764;23.432;2023-02-01T07:03:46;11.20;;;4.93;;
41685;SDS011;27370;42.764;23.432;2023-02-01T07:06:13;10.60;;;4.40;;
41685;SDS011;27370;42.764;23.432;2023-02-01T07:08:39;11.07;;;4.30;;
41685;SDS011;27370;42.764;23.432;2023-02-01T07:11:05;13.60;;;5.53;;
41685;SDS011;27370;42.764;23.432;2023-02-01T07:13:33;10.25;;;4.85;;
41685;SDS011;27370;42.764;23.432;2023-02-01T07:15:59;11.27;;;4.85;;
41685;SDS011;27370;42.764;23.432;2023-02-01T07:18:26;9.82;;;4.47;;
41685;SDS011;27370;42.764;23.432;2023-02-01T07:20:53;10.20;;;4.88;;
41685;SDS011;27370;42.764;23.432;2023-02-01T07:23:18;12.27;;;5.07;;
41685;SDS011;27370;42.764;23.432;2023-02-01T07:25:45;11.30;;;4.95;;
41685;SDS011;27370;42.764;23.432;2023-02-01T07:28:10;10.02;;;4.10;;
41685;SDS011;27370;42.764;23.432;2023-02-01T07:30:36;10.65;;;4.43;;
41685;SDS011;27370;42.764;23.432;2023-02-01T07:33:02;10.57;;;4.32;;
41685;SDS011;27370;42.764;23.432;2023-02-01T07:35:28;10.98;;;4.72;;
41685;SDS011;27370;42.764;23.432;2023-02-01T07:37:54;11.07;;;4.38;;
41685;SDS011;27370;42.764;23.432;2023-02-01T07:40:19;8.88;;;3.83;;
41685;SDS011;27370;42.764;23.432;2023-02-01T07:42:50;7.72;;;3.83;;
41685;SDS011;27370;42.764;23.432;2023-02-01T07:45:15;12.07;;;5.03;;
41685;SDS011;27370;42.764;23.432;2023-02-01T07:47:41;13.23;;;4.70;;
41685;SDS011;27370;42.764;23.432;2023-02-01T07:50:07;9.68;;;4.45;;
41685;SDS011;27370;42.764;23.432;2023-02-01T07:52:33;11.85;;;4.40;;
41685;SDS011;27370;42.764;23.432;2023-02-01T07:54:58;11.48;;;4.60;;
41685;SDS011;27370;42.764;23.432;2023-02-01T07:57:24;10.23;;;4.20;;
41685;SDS011;27370;42.764;23.432;2023-02-01T07:59:49;10.52;;;4.50;;
41685;SDS011;27370;42.764;23.432;2023-02-01T08:02:37;9.35;;;4.50;;
41685;SDS011;27370;42.764;23.432;2023-02-01T08:05:03;12.30;;;4.25;;
41685;SDS011;27370;42.764;23.432;2023-02-01T08:11:24;10.02;;;4.50;;
41685;SDS011;27370;42.764;23.432;2023-02-01T08:13:51;10.30;;;4.90;;
41685;SDS011;27370;42.764;23.432;2023-02-01T08:16:18;12.82;;;4.60;;
41685;SDS011;27370;42.764;23.432;2023-02-01T08:18:44;9.90;;;4.53;;
41685;SDS011;27370;42.764;23.432;2023-02-01T08:23:38;9.82;;;4.13;;
41685;SDS011;27370;42.764;23.432;2023-02-01T08:26:26;11.25;;;4.03;;
41685;SDS011;27370;42.764;23.432;2023-02-01T08:28:52;11.20;;;3.95;;
41685;SDS011;27370;42.764;23.432;2023-02-01T08:31:22;10.35;;;3.83;;
41685;SDS011;27370;42.764;23.432;2023-02-01T08:33:53;11.98;;;4.78;;
41685;SDS011;27370;42.764;23.432;2023-02-01T08:36:20;9.50;;;3.95;;
41685;SDS011;27370;42.764;23.432;2023-02-01T08:38:47;9.82;;;4.10;;
41685;SDS011;27370;42.764;23.432;2023-02-01T08:41:14;8.32;;;3.42;;
41685;SDS011;27370;42.764;23.432;2023-02-01T08:43:41;10.57;;;3.92;;
41685;SDS011;27370;42.764;23.432;2023-02-01T08:46:08;12.70;;;4.18;;
41685;SDS011;27370;42.764;23.432;2023-02-01T08:48:34;9.35;;;3.88;;
41685;SDS011;27370;42.764;23.432;2023-02-01T08:51:01;11.82;;;4.50;;
41685;SDS011;27370;42.764;23.432;2023-02-01T08:53:28;10.70;;;3.00;;
41685;SDS011;27370;42.764;23.432;2023-02-01T08:55:54;9.48;;;3.50;;
41685;SDS011;27370;42.764;23.432;2023-02-01T08:58:19;10.50;;;3.80;;
41685;SDS011;27370;42.764;23.432;2023-02-01T09:00:47;8.13;;;2.88;;
41685;SDS011;27370;42.764;23.432;2023-02-01T09:03:16;10.20;;;3.30;;
41685;SDS011;27370;42.764;23.432;2023-02-01T09:05:42;9.90;;;3.30;;
41685;SDS011;27370;42.764;23.432;2023-02-01T09:08:07;9.05;;;3.40;;
41685;SDS011;27370;42.764;23.432;2023-02-01T09:10:33;12.27;;;5.72;;
41685;SDS011;27370;42.764;23.432;2023-02-01T09:13:00;10.82;;;3.83;;
41685;SDS011;27370;42.764;23.432;2023-02-01T09:15:25;6.82;;;3.00;;
41685;SDS011;27370;42.764;23.432;2023-02-01T09:17:51;9.13;;;3.60;;
41685;SDS011;27370;42.764;23.432;2023-02-01T09:20:16;10.27;;;3.78;;
41685;SDS011;27370;42.764;23.432;2023-02-01T09:22:44;10.00;;;4.15;;
41685;SDS011;27370;42.764;23.432;2023-02-01T09:25:09;15.02;;;5.45;;
41685;SDS011;27370;42.764;23.432;2023-02-01T09:27:35;9.98;;;3.60;;
41685;SDS011;27370;42.764;23.432;2023-02-01T09:30:00;7.40;;;2.88;;
41685;SDS011;27370;42.764;23.432;2023-02-01T09:32:27;7.38;;;2.95;;
41685;SDS011;27370;42.764;23.432;2023-02-01T09:34:52;9.15;;;3.10;;
41685;SDS011;27370;42.764;23.432;2023-02-01T09:37:18;12.05;;;3.28;;
41685;SDS011;27370;42.764;23.432;2023-02-01T09:39:44;7.90;;;3.08;;
41685;SDS011;27370;42.764;23.432;2023-02-01T09:44:56;9.52;;;3.42;;
41685;SDS011;27370;42.764;23.432;2023-02-01T09:47:24;10.93;;;3.63;;
41685;SDS011;27370;42.764;23.432;2023-02-01T09:52:34;9.00;;;3.33;;
41685;SDS011;27370;42.764;23.432;2023-02-01T09:55:53;6.82;;;2.30;;
41685;SDS011;27370;42.764;23.432;2023-02-01T09:58:26;8.07;;;2.83;;
41685;SDS011;27370;42.764;23.432;2023-02-01T10:00:52;5.13;;;2.33;;
41685;SDS011;27370;42.764;23.432;2023-02-01T10:03:20;5.07;;;2.00;;
41685;SDS011;27370;42.764;23.432;2023-02-01T10:05:58;6.25;;;2.30;;
41685;SDS011;27370;42.764;23.432;2023-02-01T10:19:47;8.13;;;2.28;;
41685;SDS011;27370;42.764;23.432;2023-02-01T10:25:18;5.57;;;2.22;;
41685;SDS011;27370;42.764;23.432;2023-02-01T10:27:51;4.50;;;1.98;;
41685;SDS011;27370;42.764;23.432;2023-02-01T10:30:19;5.82;;;1.90;;
41685;SDS011;27370;42.764;23.432;2023-02-01T10:32:45;7.53;;;2.42;;
41685;SDS011;27370;42.764;23.432;2023-02-01T10:35:16;6.50;;;1.90;;
41685;SDS011;27370;42.764;23.432;2023-02-01T10:37:45;6.35;;;2.00;;
41685;SDS011;27370;42.764;23.432;2023-02-01T10:42:54;5.37;;;1.90;;
41685;SDS011;27370;42.764;23.432;2023-02-01T10:45:24;5.38;;;1.60;;
41685;SDS011;27370;42.764;23.432;2023-02-01T10:47:52;4.68;;;1.55;;
41685;SDS011;27370;42.764;23.432;2023-02-01T10:52:58;5.45;;;1.70;;
41685;SDS011;27370;42.764;23.432;2023-02-01T10:55:37;5.03;;;1.95;;
41685;SDS011;27370;42.764;23.432;2023-02-01T10:58:05;6.40;;;1.85;;
41685;SDS011;27370;42.764;23.432;2023-02-01T11:03:18;3.83;;;1.80;;
41685;SDS011;27370;42.764;23.432;2023-02-01T11:08:46;5.53;;;1.83;;
41685;SDS011;27370;42.764;23.432;2023-02-01T11:11:17;4.88;;;1.70;;
41685;SDS011;27370;42.764;23.432;2023-02-01T11:13:43;6.53;;;1.98;;
41685;SDS011;27370;42.764;23.432;2023-02-01T11:16:11;6.10;;;1.85;;
41685;SDS011;27370;42.764;23.432;2023-02-01T11:18:38;4.57;;;1.83;;
41685;SDS011;27370;42.764;23.432;2023-02-01T11:21:05;5.63;;;1.92;;
41685;SDS011;27370;42.764;23.432;2023-02-01T11:23:31;5.07;;;2.05;;
41685;SDS011;27370;42.764;23.432;2023-02-01T11:25:59;3.83;;;1.75;;
41685;SDS011;27370;42.764;23.432;2023-02-01T11:28:27;5.80;;;2.00;;
41685;SDS011;27370;42.764;23.432;2023-02-01T11:30:58;4.70;;;1.90;;
41685;SDS011;27370;42.764;23.432;2023-02-01T11:33:29;6.78;;;2.45;;
41685;SDS011;27370;42.764;23.432;2023-02-01T11:36:11;5.03;;;2.00;;
41685;SDS011;27370;42.764;23.432;2023-02-01T11:38:45;8.70;;;2.08;;
41685;SDS011;27370;42.764;23.432;2023-02-01T11:43:52;6.70;;;2.53;;
41685;SDS011;27370;42.764;23.432;2023-02-01T11:46:18;5.20;;;1.88;;
41685;SDS011;27370;42.764;23.432;2023-02-01T11:48:49;5.30;;;1.98;;
41685;SDS011;27370;42.764;23.432;2023-02-01T11:56:22;5.22;;;2.00;;
41685;SDS011;27370;42.764;23.432;2023-02-01T12:07:10;4.45;;;1.90;;
41685;SDS011;27370;42.764;23.432;2023-02-01T12:36:16;4.65;;;1.60;;
41685;SDS011;27370;42.764;23.432;2023-02-01T12:38:52;5.35;;;1.90;;
41685;SDS011;27370;42.764;23.432;2023-02-01T12:49:33;7.13;;;2.17;;
41685;SDS011;27370;42.764;23.432;2023-02-01T12:52:27;4.82;;;1.92;;
41685;SDS011;27370;42.764;23.432;2023-02-01T12:55:03;4.63;;;2.08;;
41685;SDS011;27370;42.764;23.432;2023-02-01T12:57:37;4.82;;;1.77;;
41685;SDS011;27370;42.764;23.432;2023-02-01T13:00:19;5.70;;;1.98;;
41685;SDS011;27370;42.764;23.432;2023-02-01T13:05:44;3.72;;;1.80;;
41685;SDS011;27370;42.764;23.432;2023-02-01T13:08:19;4.03;;;1.90;;
41685;SDS011;27370;42.764;23.432;2023-02-01T13:10:53;6.22;;;1.92;;
41685;SDS011;27370;42.764;23.432;2023-02-01T13:13:49;5.30;;;2.00;;
41685;SDS011;27370;42.764;23.432;2023-02-01T13:21:49;5.32;;;2.10;;
41685;SDS011;27370;42.764;23.432;2023-02-01T13:24:26;6.13;;;2.22;;
41685;SDS011;27370;42.764;23.432;2023-02-01T13:27:10;6.88;;;2.33;;
41685;SDS011;27370;42.764;23.432;2023-02-01T13:30:42;6.13;;;2.10;;
41685;SDS011;27370;42.764;23.432;2023-02-01T13:41:42;6.85;;;2.10;;
41685;SDS011;27370;42.764;23.432;2023-02-01T13:44:32;5.70;;;2.25;;
41685;SDS011;27370;42.764;23.432;2023-02-01T13:47:08;6.78;;;2.22;;
41685;SDS011;27370;42.764;23.432;2023-02-01T13:49:43;5.75;;;2.10;;
41685;SDS011;27370;42.764;23.432;2023-02-01T13:52:21;4.65;;;1.95;;
41685;SDS011;27370;42.764;23.432;2023-02-01T13:57:58;6.25;;;2.55;;
41685;SDS011;27370;42.764;23.432;2023-02-01T14:00:35;4.68;;;2.08;;
41685;SDS011;27370;42.764;23.432;2023-02-01T14:16:15;3.92;;;1.90;;
41685;SDS011;27370;42.764;23.432;2023-02-01T14:26:45;5.22;;;2.10;;
41685;SDS011;27370;42.764;23.432;2023-02-01T14:32:05;6.17;;;2.20;;
41685;SDS011;27370;42.764;23.432;2023-02-01T14:44:47;5.07;;;1.77;;
41685;SDS011;27370;42.764;23.432;2023-02-01T14:47:26;5.22;;;2.10;;
41685;SDS011;27370;42.764;23.432;2023-02-01T14:52:35;5.50;;;2.17;;
41685;SDS011;27370;42.764;23.432;2023-02-01T14:57:59;4.20;;;1.98;;
41685;SDS011;27370;42.764;23.432;2023-02-01T15:00:30;6.72;;;2.53;;
41685;SDS011;27370;42.764;23.432;2023-02-01T15:03:01;8.50;;;2.60;;
41685;SDS011;27370;42.764;23.432;2023-02-01T15:05:57;6.90;;;2.40;;
41685;SDS011;27370;42.764;23.432;2023-02-01T15:08:33;6.07;;;2.10;;
41685;SDS011;27370;42.764;23.432;2023-02-01T15:11:05;7.47;;;3.25;;
41685;SDS011;27370;42.764;23.432;2023-02-01T15:13:36;7.45;;;2.80;;
41685;SDS011;27370;42.764;23.432;2023-02-01T15:16:12;9.32;;;3.58;;
41685;SDS011;27370;42.764;23.432;2023-02-01T15:18:40;6.45;;;2.72;;
41685;SDS011;27370;42.764;23.432;2023-02-01T15:21:06;8.27;;;2.90;;
41685;SDS011;27370;42.764;23.432;2023-02-01T15:23:40;8.25;;;2.83;;
41685;SDS011;27370;42.764;23.432;2023-02-01T15:26:06;6.75;;;2.83;;
41685;SDS011;27370;42.764;23.432;2023-02-01T15:28:31;6.88;;;2.72;;
41685;SDS011;27370;42.764;23.432;2023-02-01T15:30:59;10.60;;;3.78;;
41685;SDS011;27370;42.764;23.432;2023-02-01T15:35:54;9.15;;;3.10;;
41685;SDS011;27370;42.764;23.432;2023-02-01T15:38:35;8.60;;;3.50;;
41685;SDS011;27370;42.764;23.432;2023-02-01T15:46:21;8.93;;;3.80;;
41685;SDS011;27370;42.764;23.432;2023-02-01T15:48:50;9.30;;;3.83;;
41685;SDS011;27370;42.764;23.432;2023-02-01T15:51:19;9.65;;;4.18;;
41685;SDS011;27370;42.764;23.432;2023-02-01T15:53:51;11.02;;;4.63;;
41685;SDS011;27370;42.764;23.432;2023-02-01T15:56:24;10.60;;;4.10;;
41685;SDS011;27370;42.764;23.432;2023-02-01T15:58:59;13.73;;;5.97;;
41685;SDS011;27370;42.764;23.432;2023-02-01T16:01:27;11.15;;;4.55;;
41685;SDS011;27370;42.764;23.432;2023-02-01T16:06:50;10.25;;;4.60;;
41685;SDS011;27370;42.764;23.432;2023-02-01T16:09:21;13.00;;;4.35;;
41685;SDS011;27370;42.764;23.432;2023-02-01T16:11:52;10.00;;;4.43;;
41685;SDS011;27370;42.764;23.432;2023-02-01T16:14:19;9.80;;;4.43;;
41685;SDS011;27370;42.764;23.432;2023-02-01T16:16:45;13.10;;;5.00;;
41685;SDS011;27370;42.764;23.432;2023-02-01T16:19:11;15.25;;;7.28;;
41685;SDS011;27370;42.764;23.432;2023-02-01T16:21:36;21.02;;;9.20;;
41685;SDS011;27370;42.764;23.432;2023-02-01T16:24:02;16.98;;;6.30;;
41685;SDS011;27370;42.764;23.432;2023-02-01T16:26:29;11.50;;;4.55;;
41685;SDS011;27370;42.764;23.432;2023-02-01T16:28:56;13.32;;;6.05;;
41685;SDS011;27370;42.764;23.432;2023-02-01T16:31:25;11.57;;;4.72;;
41685;SDS011;27370;42.764;23.432;2023-02-01T16:33:53;9.77;;;3.75;;
41685;SDS011;27370;42.764;23.432;2023-02-01T16:36:19;11.27;;;4.53;;
41685;SDS011;27370;42.764;23.432;2023-02-01T16:38:45;8.93;;;3.90;;
41685;SDS011;27370;42.764;23.432;2023-02-01T16:41:13;12.18;;;4.70;;
41685;SDS011;27370;42.764;23.432;2023-02-01T16:43:40;14.13;;;5.22;;
41685;SDS011;27370;42.764;23.432;2023-02-01T16:46:06;12.77;;;4.95;;
41685;SDS011;27370;42.764;23.432;2023-02-01T16:48:38;12.57;;;4.78;;
41685;SDS011;27370;42.764;23.432;2023-02-01T16:51:11;12.57;;;5.57;;
41685;SDS011;27370;42.764;23.432;2023-02-01T16:53:38;13.60;;;5.63;;
41685;SDS011;27370;42.764;23.432;2023-02-01T16:56:23;12.57;;;5.78;;
41685;SDS011;27370;42.764;23.432;2023-02-01T17:01:20;16.02;;;7.22;;
41685;SDS011;27370;42.764;23.432;2023-02-01T17:03:46;16.42;;;8.10;;
41685;SDS011;27370;42.764;23.432;2023-02-01T17:06:13;19.15;;;8.65;;
41685;SDS011;27370;42.764;23.432;2023-02-01T17:08:42;18.25;;;9.25;;
41685;SDS011;27370;42.764;23.432;2023-02-01T17:11:11;21.15;;;9.30;;
41685;SDS011;27370;42.764;23.432;2023-02-01T17:13:38;25.95;;;11.05;;
41685;SDS011;27370;42.764;23.432;2023-02-01T17:16:11;23.48;;;10.18;;
41685;SDS011;27370;42.764;23.432;2023-02-01T17:18:59;19.35;;;10.13;;
41685;SDS011;27370;42.764;23.432;2023-02-01T17:21:29;20.58;;;9.95;;
41685;SDS011;27370;42.764;23.432;2023-02-01T17:23:59;21.35;;;10.15;;
41685;SDS011;27370;42.764;23.432;2023-02-01T17:26:26;20.15;;;10.45;;
41685;SDS011;27370;42.764;23.432;2023-02-01T17:28:51;19.75;;;10.05;;
41685;SDS011;27370;42.764;23.432;2023-02-01T17:31:17;22.23;;;10.27;;
41685;SDS011;27370;42.764;23.432;2023-02-01T17:33:43;21.42;;;10.65;;
41685;SDS011;27370;42.764;23.432;2023-02-01T17:36:11;19.80;;;10.07;;
41685;SDS011;27370;42.764;23.432;2023-02-01T17:41:04;22.77;;;10.45;;
41685;SDS011;27370;42.764;23.432;2023-02-01T17:43:29;21.15;;;11.82;;
41685;SDS011;27370;42.764;23.432;2023-02-01T17:45:59;23.33;;;11.82;;